»·PEaware :: N54102 KMCC-KMCC

N54102 :: KMCC-KMCC

FLIGHT INFORMATION

Flight Status: Arrived
Operator: Privately registered:
United States
More flights under this callsign
Pilot: Chris B. (23589)
Aircraft: CESSNA 172 SKYHAWK
(C172)
More flights by this aircraft type
Origin: KMCC McClellan
United States
Destination: KMCC McClellan
United States
More flights between these airports :: More routes between these airports
Route: SAC
File this flight plan on PilotEdge
Remarks: Check ride prep!
Altitude:
(Current/Filed)
3,000ft
Speed:
(Current/Filed)
110kts
Departed: 04-Nov-20 09:05 PM
Arrived: 04-Nov-20 09:50 PM
Distance/Time
Traveled:
1nm/0:44
Distance/Time
To Go:
Arrived

Flight Plot

Page will automatically refresh every two minutes.

Flight plan parsing failed; only flown route is shown


Map Options




Map Legend


Flown Route
Filed Route
Departure Airport
Arrival Airport
Navaid (VOR, NDB)
Fix

Horizontal Profiles

Position Reports

Time Latitude Longitude Heading Altitude Ground
Speed
04-Nov-20 20:43 38.663068 -121.397116 0 74ft 0kts
04-Nov-20 20:44 38.663068 -121.397116 0 74ft 0kts
04-Nov-20 20:45 38.663068 -121.397116 0 74ft 0kts
04-Nov-20 20:46 38.663068 -121.397116 0 74ft 0kts
04-Nov-20 20:47 38.663068 -121.397116 0 74ft 0kts
04-Nov-20 20:48 38.663068 -121.397116 0 74ft 0kts
04-Nov-20 20:49 38.663068 -121.397116 0 74ft 0kts
04-Nov-20 20:50 38.663068 -121.397116 0 74ft 0kts
04-Nov-20 20:51 38.663068 -121.397116 0 74ft 0kts
04-Nov-20 20:52 38.663068 -121.397116 0 74ft 0kts
04-Nov-20 20:53 38.663068 -121.397116 0 74ft 0kts
04-Nov-20 20:54 38.663068 -121.397116 0 74ft 0kts
04-Nov-20 20:55 38.663068 -121.397116 359 74ft 0kts
04-Nov-20 20:56 38.663068 -121.397116 359 74ft 0kts
04-Nov-20 20:57 38.663068 -121.397116 359 74ft 0kts
04-Nov-20 20:59 38.663255 -121.397310 278 74ft 7kts
04-Nov-20 21:00 38.659991 -121.397864 180 75ft 13kts
04-Nov-20 21:01 38.655210 -121.397862 180 74ft 19kts
04-Nov-20 21:02 38.653840 -121.399378 238 70ft 0kts
04-Nov-20 21:03 38.653840 -121.399378 238 70ft 0kts
04-Nov-20 21:04 38.653473 -121.400656 329 69ft 10kts
04-Nov-20 21:05 38.667288 -121.400201 3 490ft 77kts
04-Nov-20 21:06 38.681837 -121.412660 247 1257ft 95kts
04-Nov-20 21:07 38.656956 -121.425396 198 2017ft 101kts
04-Nov-20 21:08 38.631370 -121.439615 209 2730ft 101kts
04-Nov-20 21:09 38.603875 -121.456372 207 3000ft 123kts
04-Nov-20 21:10 38.573234 -121.475699 208 3059ft 122kts
04-Nov-20 21:11 38.541515 -121.492911 206 3037ft 124kts
04-Nov-20 21:12 38.510282 -121.511717 209 2964ft 121kts
04-Nov-20 21:13 38.479761 -121.530506 206 3046ft 121kts
04-Nov-20 21:13 38.453608 -121.544747 192 3071ft 124kts
04-Nov-20 21:15 38.445603 -121.510095 65 3033ft 103kts
04-Nov-20 21:15 38.452188 -121.480169 73 3018ft 105kts
04-Nov-20 21:17 38.458422 -121.436878 74 3016ft 105kts
04-Nov-20 21:17 38.462302 -121.405711 73 3003ft 105kts
04-Nov-20 21:18 38.469705 -121.370196 51 3070ft 97kts
04-Nov-20 21:19 38.494801 -121.363340 351 2943ft 99kts
04-Nov-20 21:20 38.519781 -121.370528 1 2157ft 90kts
04-Nov-20 21:21 38.543039 -121.378237 347 2281ft 87kts
04-Nov-20 21:22 38.566664 -121.384023 353 1925ft 87kts
04-Nov-20 21:23 38.590708 -121.388714 349 1373ft 89kts
04-Nov-20 21:24 38.614789 -121.394126 350 901ft 87kts
04-Nov-20 21:25 38.638562 -121.398575 347 558ft 82kts
04-Nov-20 21:26 38.660901 -121.399298 13 1157ft 85kts
04-Nov-20 21:27 38.682222 -121.394765 343 2042ft 76kts
04-Nov-20 21:28 38.704584 -121.402705 4 2336ft 102kts
04-Nov-20 21:29 38.731955 -121.402237 358 2253ft 96kts
04-Nov-20 21:30 38.758160 -121.401853 1 2272ft 93kts
04-Nov-20 21:31 38.783989 -121.400142 5 2268ft 93kts
04-Nov-20 21:32 38.809515 -121.395945 15 2262ft 92kts
04-Nov-20 21:33 38.834339 -121.386709 354 2225ft 95kts
04-Nov-20 21:34 38.824028 -121.404440 176 2220ft 116kts
04-Nov-20 21:35 38.792241 -121.403872 165 2222ft 115kts
04-Nov-20 21:36 38.795368 -121.383234 350 2247ft 91kts
04-Nov-20 21:37 38.821016 -121.382031 3 2227ft 93kts
04-Nov-20 21:38 38.828797 -121.400323 203 2215ft 110kts
04-Nov-20 21:39 38.797309 -121.399861 187 2207ft 112kts
04-Nov-20 21:40 38.780267 -121.384728 49 2404ft 88kts
04-Nov-20 21:41 38.802104 -121.383207 349 3016ft 85kts
04-Nov-20 21:42 38.826250 -121.385461 351 3185ft 95kts
04-Nov-20 21:43 38.815584 -121.399488 168 3023ft 107kts
04-Nov-20 21:44 38.785133 -121.398363 187 2604ft 112kts
04-Nov-20 21:45 38.755211 -121.400209 183 1635ft 110kts
04-Nov-20 21:46 38.726138 -121.400474 181 961ft 104kts
04-Nov-20 21:47 38.697466 -121.400596 180 424ft 102kts
04-Nov-20 21:48 38.672031 -121.400598 179 71ft 65kts
04-Nov-20 21:49 38.666517 -121.398567 140 71ft 6kts
04-Nov-20 21:50 38.663215 -121.394935 144 78ft 20kts
04-Nov-20 21:51 38.660257 -121.392792 179 79ft 0kts

Navigation Log

Ident Type
Flight plan parsing failed, navigation log unavailable